createdAt,value
2022-08-26T00:00:19.809Z,23.40
2022-08-26T00:02:48.219Z,23.40
2022-08-26T00:05:16.658Z,23.30
2022-08-26T00:07:46.664Z,23.30
2022-08-26T00:10:15.672Z,23.20
2022-08-26T00:12:43.976Z,23.10
2022-08-26T00:15:15.586Z,23.20
2022-08-26T00:17:44.011Z,23.10
2022-08-26T00:20:14.253Z,23.00
2022-08-26T00:22:42.489Z,23.10
2022-08-26T00:25:12.675Z,23.00
2022-08-26T00:27:41.216Z,23.00
2022-08-26T00:30:13.453Z,23.00
2022-08-26T00:32:41.748Z,22.90
2022-08-26T00:35:14.989Z,22.90
2022-08-26T00:37:43.796Z,22.90
2022-08-26T00:40:16.500Z,22.90
2022-08-26T00:42:46.102Z,22.90
2022-08-26T00:45:15.774Z,22.80
2022-08-26T00:47:47.796Z,22.80
2022-08-26T00:50:19.677Z,22.70
2022-08-26T00:52:49.116Z,22.60
2022-08-26T00:55:24.967Z,22.50
2022-08-26T00:57:56.775Z,22.40
2022-08-26T01:00:28.507Z,22.40
2022-08-26T01:02:58.926Z,22.40
2022-08-26T01:05:27.323Z,22.40
2022-08-26T01:07:55.654Z,22.40
2022-08-26T01:10:30.151Z,22.40
2022-08-26T01:13:01.575Z,22.30
2022-08-26T01:15:35.588Z,22.20
2022-08-26T01:18:05.993Z,22.20
2022-08-26T01:20:42.371Z,22.10
2022-08-26T01:23:13.216Z,22.10
2022-08-26T01:25:46.440Z,22.10
2022-08-26T01:28:18.338Z,22.00
2022-08-26T01:30:48.016Z,21.90
2022-08-26T01:33:20.455Z,21.90
2022-08-26T01:35:49.032Z,21.90
2022-08-26T01:38:19.533Z,21.80
2022-08-26T01:40:48.444Z,21.80
2022-08-26T01:43:22.532Z,21.70
2022-08-26T01:45:54.793Z,21.80
2022-08-26T01:48:28.569Z,21.80
2022-08-26T01:50:57.486Z,21.90
2022-08-26T01:53:28.383Z,21.80
2022-08-26T01:55:59.979Z,21.90
2022-08-26T01:58:33.859Z,21.90
2022-08-26T02:01:03.513Z,21.90
2022-08-26T02:03:33.073Z,22.00
2022-08-26T02:06:09.222Z,22.00
2022-08-26T02:08:44.656Z,22.00
2022-08-26T02:11:13.727Z,22.00
2022-08-26T02:13:47.245Z,21.90
2022-08-26T02:16:19.068Z,21.90
2022-08-26T02:18:48.942Z,21.90
2022-08-26T02:21:21.123Z,21.90
2022-08-26T02:23:52.072Z,21.90
2022-08-26T02:26:22.664Z,21.80
2022-08-26T02:28:55.472Z,21.80
2022-08-26T02:31:23.850Z,21.80
2022-08-26T02:33:52.305Z,21.80
2022-08-26T02:36:22.083Z,21.70
2022-08-26T02:38:52.179Z,21.70
2022-08-26T02:41:20.544Z,21.70
2022-08-26T02:43:51.568Z,21.60
2022-08-26T02:46:27.799Z,21.60
2022-08-26T02:48:58.220Z,21.20
2022-08-26T02:51:26.802Z,21.40
2022-08-26T02:53:56.922Z,21.40
2022-08-26T02:56:25.603Z,21.50
2022-08-26T02:58:53.874Z,21.60
2022-08-26T03:01:23.875Z,21.50
2022-08-26T03:03:52.213Z,21.60
2022-08-26T03:06:20.507Z,21.60
2022-08-26T03:08:49.027Z,21.60
2022-08-26T03:11:19.762Z,21.50
2022-08-26T03:13:48.172Z,21.50
2022-08-26T03:16:16.580Z,21.50
2022-08-26T03:18:52.056Z,21.50
2022-08-26T03:21:22.227Z,21.40
2022-08-26T03:23:50.420Z,21.40
2022-08-26T03:26:20.905Z,21.40
2022-08-26T03:29:06.561Z,21.40
2022-08-26T03:31:34.982Z,21.40
2022-08-26T03:34:03.531Z,21.30
2022-08-26T03:36:32.137Z,21.30
2022-08-26T03:39:03.618Z,21.20
2022-08-26T03:41:34.936Z,21.20
2022-08-26T03:44:03.898Z,21.20
2022-08-26T03:46:33.574Z,21.10
2022-08-26T03:49:05.394Z,21.00
2022-08-26T03:51:34.870Z,21.00
2022-08-26T03:54:08.455Z,21.00
2022-08-26T03:56:38.845Z,21.00
2022-08-26T03:59:08.497Z,21.00
2022-08-26T04:01:36.822Z,21.00
2022-08-26T04:04:06.482Z,21.00
2022-08-26T04:06:38.503Z,21.00
2022-08-26T04:09:08.474Z,21.00
2022-08-26T04:11:39.719Z,21.00
2022-08-26T04:14:10.591Z,21.00
2022-08-26T04:16:39.005Z,21.00
2022-08-26T04:19:07.461Z,21.00
2022-08-26T04:21:38.197Z,21.00
2022-08-26T04:24:11.368Z,21.00
2022-08-26T04:26:43.782Z,21.00
2022-08-26T04:29:14.173Z,20.90
2022-08-26T04:31:42.786Z,19.90
2022-08-26T04:34:11.666Z,19.50
2022-08-26T04:36:43.090Z,19.00
2022-08-26T04:39:14.952Z,18.60
2022-08-26T04:41:45.374Z,19.10
2022-08-26T04:44:13.811Z,19.50
2022-08-26T04:46:43.961Z,19.80
2022-08-26T04:49:12.939Z,20.10
2022-08-26T04:51:41.623Z,20.20
2022-08-26T04:54:12.352Z,20.40
2022-08-26T04:56:44.002Z,20.50
2022-08-26T04:59:18.281Z,20.60
2022-08-26T05:01:48.651Z,20.60
2022-08-26T05:04:19.013Z,20.60
2022-08-26T05:06:47.797Z,20.60
2022-08-26T05:09:16.278Z,20.60
2022-08-26T05:11:45.653Z,20.60
2022-08-26T05:14:18.819Z,20.50
2022-08-26T05:16:47.946Z,20.50
2022-08-26T05:19:19.202Z,20.50
2022-08-26T05:21:48.374Z,20.50
2022-08-26T05:24:16.717Z,20.40
2022-08-26T05:26:45.142Z,20.50
2022-08-26T05:29:14.287Z,20.50
2022-08-26T05:31:44.245Z,20.50
2022-08-26T05:34:12.758Z,20.60
2022-08-26T05:36:41.325Z,20.60
2022-08-26T05:39:10.668Z,20.60
2022-08-26T05:41:41.101Z,20.60
2022-08-26T05:44:12.743Z,20.60
2022-08-26T05:46:45.122Z,20.50
2022-08-26T05:49:15.921Z,20.40
2022-08-26T05:51:47.478Z,20.40
2022-08-26T05:54:22.304Z,20.50
2022-08-26T05:56:51.825Z,20.60
2022-08-26T05:59:24.664Z,20.70
2022-08-26T06:01:55.162Z,20.80
2022-08-26T06:04:26.908Z,20.70
2022-08-26T06:06:56.495Z,20.40
2022-08-26T06:09:25.026Z,20.20
2022-08-26T06:11:53.596Z,20.00
2022-08-26T06:14:22.214Z,20.20
2022-08-26T06:16:50.420Z,20.50
2022-08-26T06:19:21.694Z,20.70
2022-08-26T06:21:54.157Z,20.90
2022-08-26T06:24:40.937Z,21.00
2022-08-26T06:27:13.750Z,21.10
2022-08-26T06:29:42.620Z,20.90
2022-08-26T06:32:11.080Z,20.60
2022-08-26T06:34:41.264Z,20.70
2022-08-26T06:37:09.899Z,20.60
2022-08-26T06:39:41.050Z,20.40
2022-08-26T06:42:11.011Z,20.40
2022-08-26T06:44:41.721Z,20.50
2022-08-26T06:47:13.119Z,20.50
2022-08-26T06:49:42.749Z,20.60
2022-08-26T06:52:12.631Z,20.70
2022-08-26T06:54:43.196Z,20.80
2022-08-26T06:57:14.253Z,21.00
2022-08-26T06:59:45.111Z,21.10
2022-08-26T07:02:13.776Z,21.20
2022-08-26T07:04:44.651Z,21.20
2022-08-26T07:07:16.723Z,21.30
2022-08-26T07:09:45.883Z,21.30
2022-08-26T07:12:14.082Z,21.50
2022-08-26T07:14:47.550Z,21.60
2022-08-26T07:17:16.688Z,21.60
2022-08-26T07:19:46.560Z,21.60
2022-08-26T07:22:14.997Z,21.70
2022-08-26T07:24:44.523Z,21.70
2022-08-26T07:27:14.857Z,21.80
2022-08-26T07:29:44.799Z,21.80
2022-08-26T07:32:14.805Z,21.90
2022-08-26T07:34:45.500Z,22.00
2022-08-26T07:37:13.860Z,22.10
2022-08-26T07:39:44.339Z,22.20
2022-08-26T07:42:14.855Z,22.30
2022-08-26T07:44:44.610Z,22.30
2022-08-26T07:47:25.115Z,22.40
2022-08-26T07:49:58.019Z,22.40
2022-08-26T07:52:28.295Z,22.50
2022-08-26T07:54:58.285Z,22.60
2022-08-26T07:57:26.587Z,22.70
2022-08-26T07:59:55.644Z,22.70
2022-08-26T08:02:25.433Z,22.80
2022-08-26T08:04:55.313Z,22.90
2022-08-26T08:07:35.031Z,23.00
2022-08-26T08:10:15.087Z,23.10
2022-08-26T08:12:44.570Z,23.30
2022-08-26T08:15:14.692Z,23.40
2022-08-26T08:17:44.070Z,23.50
2022-08-26T08:20:15.360Z,23.60
2022-08-26T08:22:44.053Z,23.60
2022-08-26T08:25:13.863Z,23.80
2022-08-26T08:27:45.147Z,23.90
2022-08-26T08:30:14.461Z,23.90
2022-08-26T08:32:44.400Z,23.80
2022-08-26T08:35:16.328Z,23.80
2022-08-26T08:37:45.409Z,23.90
2022-08-26T08:40:18.386Z,24.00
2022-08-26T08:45:24.512Z,24.30
2022-08-26T08:47:55.890Z,24.30
2022-08-26T08:50:29.894Z,24.30
2022-08-26T08:53:05.770Z,24.40
2022-08-26T08:55:45.398Z,24.30
2022-08-26T08:58:19.161Z,24.30
2022-08-26T09:00:55.033Z,24.40
2022-08-26T09:03:48.741Z,24.40
2022-08-26T09:06:18.981Z,24.60
2022-08-26T09:08:50.092Z,24.70
2022-08-26T09:11:20.241Z,24.70
2022-08-26T09:13:51.932Z,24.70
2022-08-26T09:16:25.356Z,24.70
2022-08-26T09:19:14.599Z,24.90
2022-08-26T09:21:56.837Z,25.00
2022-08-26T09:24:28.901Z,25.10
2022-08-26T09:26:59.155Z,25.00
2022-08-26T09:29:29.243Z,25.10
2022-08-26T09:32:19.590Z,25.30
2022-08-26T09:34:59.008Z,25.50
2022-08-26T09:37:39.142Z,25.70
2022-08-26T09:40:28.437Z,26.00
2022-08-26T09:43:16.044Z,26.20
2022-08-26T09:45:58.485Z,26.40
2022-08-26T09:48:31.211Z,26.50
2022-08-26T09:51:02.543Z,26.40
2022-08-26T09:53:36.625Z,26.30
2022-08-26T09:56:16.224Z,26.20
2022-08-26T09:58:47.191Z,26.20
2022-08-26T10:01:30.094Z,26.30
2022-08-26T10:04:08.426Z,26.30
2022-08-26T10:06:41.271Z,26.40
2022-08-26T10:09:15.167Z,26.50
2022-08-26T10:11:48.894Z,26.30
2022-08-26T10:14:22.212Z,26.40
2022-08-26T10:16:56.444Z,26.60
2022-08-26T10:19:41.805Z,26.60
2022-08-26T10:22:21.932Z,26.40
2022-08-26T10:24:57.044Z,26.50
2022-08-26T10:27:34.040Z,26.70
2022-08-26T10:30:08.124Z,26.70
2022-08-26T10:32:41.989Z,26.80
2022-08-26T10:35:13.260Z,27.10
2022-08-26T10:37:45.398Z,27.20
2022-08-26T10:40:19.569Z,27.30
2022-08-26T10:42:54.227Z,27.10
2022-08-26T10:45:26.711Z,27.20
2022-08-26T10:47:58.695Z,27.10
2022-08-26T10:50:31.889Z,27.20
2022-08-26T10:53:09.325Z,27.20
2022-08-26T10:55:47.253Z,27.50
2022-08-26T10:58:37.125Z,27.60
2022-08-26T11:01:31.822Z,27.60
2022-08-26T11:04:07.836Z,27.90
2022-08-26T11:06:37.076Z,27.70
2022-08-26T11:09:07.782Z,27.90
2022-08-26T11:11:50.981Z,28.00
2022-08-26T11:14:46.092Z,27.90
2022-08-26T11:17:57.049Z,27.80
2022-08-26T11:20:39.238Z,27.60
2022-08-26T11:23:50.446Z,27.70
2022-08-26T11:26:37.611Z,27.90
2022-08-26T11:29:13.569Z,27.90
2022-08-26T11:32:02.856Z,28.10
2022-08-26T11:34:56.377Z,28.10
2022-08-26T11:37:36.057Z,28.30
2022-08-26T11:40:11.136Z,28.50
2022-08-26T11:42:43.141Z,28.50
2022-08-26T11:45:23.602Z,28.60
2022-08-26T11:47:52.110Z,28.50
2022-08-26T11:50:23.391Z,28.80
2022-08-26T11:53:01.603Z,28.90
2022-08-26T11:55:30.814Z,28.80
2022-08-26T11:58:01.979Z,28.80
2022-08-26T12:00:38.840Z,28.60
2022-08-26T12:03:19.363Z,28.80
2022-08-26T12:05:50.244Z,29.00
2022-08-26T12:08:21.723Z,29.30
2022-08-26T12:10:50.075Z,29.50
2022-08-26T12:13:23.176Z,29.50
2022-08-26T12:15:57.421Z,29.50
2022-08-26T12:18:29.721Z,29.60
2022-08-26T12:21:01.483Z,29.80
2022-08-26T12:23:43.316Z,29.90
2022-08-26T12:26:19.434Z,29.90
2022-08-26T12:28:49.730Z,30.30
2022-08-26T12:31:25.980Z,30.30
2022-08-26T12:33:55.258Z,30.00
2022-08-26T12:36:27.535Z,30.10
2022-08-26T12:38:58.439Z,29.90
2022-08-26T12:41:49.464Z,30.00
2022-08-26T12:44:39.819Z,30.00
2022-08-26T12:47:13.275Z,30.10
2022-08-26T12:49:44.221Z,30.20
2022-08-26T12:52:30.031Z,30.10
2022-08-26T12:55:00.623Z,29.90
2022-08-26T12:57:32.019Z,29.80
2022-08-26T13:00:40.831Z,29.80
2022-08-26T13:03:33.260Z,29.60
2022-08-26T13:06:15.517Z,29.40
2022-08-26T13:08:45.210Z,29.30
2022-08-26T13:11:20.091Z,29.30
2022-08-26T13:13:50.489Z,29.10
2022-08-26T13:16:19.944Z,29.10
2022-08-26T13:18:51.463Z,28.90
2022-08-26T13:21:21.815Z,28.90
2022-08-26T13:23:52.067Z,28.80
2022-08-26T13:26:21.311Z,28.80
2022-08-26T13:29:01.205Z,28.80
2022-08-26T13:31:32.464Z,28.70
2022-08-26T13:34:03.616Z,28.70
2022-08-26T13:36:32.544Z,28.70
2022-08-26T13:39:00.729Z,28.80
2022-08-26T13:41:29.866Z,28.70
2022-08-26T13:43:59.485Z,28.60
2022-08-26T13:46:28.297Z,28.50
2022-08-26T13:48:56.616Z,28.50
2022-08-26T13:51:27.946Z,28.40
2022-08-26T13:53:56.427Z,28.30
2022-08-26T13:56:27.419Z,28.30
2022-08-26T13:58:56.342Z,28.20
2022-08-26T14:01:25.290Z,28.20
2022-08-26T14:03:54.111Z,28.20
2022-08-26T14:06:22.579Z,28.20
2022-08-26T14:08:52.744Z,28.30
2022-08-26T14:11:21.358Z,28.40
2022-08-26T14:13:50.390Z,28.40
2022-08-26T14:16:23.722Z,28.10
2022-08-26T14:18:53.015Z,27.90
2022-08-26T14:21:21.741Z,27.70
2022-08-26T14:23:51.576Z,27.70
2022-08-26T14:26:28.362Z,27.60
2022-08-26T14:28:58.098Z,27.60
2022-08-26T14:31:27.027Z,27.50
2022-08-26T14:33:57.902Z,27.40
2022-08-26T14:36:32.665Z,27.30
2022-08-26T14:39:06.692Z,27.20
2022-08-26T14:41:38.255Z,27.10
2022-08-26T14:44:11.838Z,27.20
2022-08-26T14:46:44.845Z,27.10
2022-08-26T14:49:13.988Z,27.00
2022-08-26T14:51:42.577Z,26.90
2022-08-26T14:54:12.809Z,27.10
2022-08-26T14:56:45.951Z,27.40
2022-08-26T14:59:15.348Z,27.50
2022-08-26T15:01:43.635Z,27.40
2022-08-26T15:04:12.177Z,27.30
2022-08-26T15:06:40.691Z,27.30
2022-08-26T15:09:09.723Z,26.80
2022-08-26T15:11:39.976Z,26.20
2022-08-26T15:14:08.475Z,26.00
2022-08-26T15:16:47.887Z,26.30
2022-08-26T15:19:16.675Z,26.60
2022-08-26T15:21:45.656Z,26.60
2022-08-26T15:24:14.893Z,26.50
2022-08-26T15:26:45.902Z,26.60
2022-08-26T15:29:14.570Z,26.60
2022-08-26T15:31:43.270Z,26.70
2022-08-26T15:34:16.715Z,26.90
2022-08-26T15:36:46.827Z,27.10
2022-08-26T15:39:16.564Z,27.20
2022-08-26T15:41:46.491Z,27.10
2022-08-26T15:44:17.733Z,27.30
2022-08-26T15:46:46.461Z,27.20
2022-08-26T15:49:17.615Z,27.10
2022-08-26T15:51:49.138Z,27.10
2022-08-26T15:54:20.650Z,27.00
2022-08-26T15:56:53.094Z,27.00
2022-08-26T15:59:23.009Z,27.00
2022-08-26T16:01:52.639Z,27.00
2022-08-26T16:04:21.561Z,26.70
2022-08-26T16:06:52.153Z,26.80
2022-08-26T16:09:21.242Z,26.90
2022-08-26T16:11:51.131Z,27.00
2022-08-26T16:14:19.268Z,27.10
2022-08-26T16:16:47.686Z,27.10
2022-08-26T16:19:16.483Z,27.20
2022-08-26T16:21:45.497Z,27.20
2022-08-26T16:24:14.282Z,27.20
2022-08-26T16:26:43.930Z,26.90
2022-08-26T16:29:15.471Z,26.20
2022-08-26T16:31:43.770Z,26.00
2022-08-26T16:34:12.518Z,26.30
2022-08-26T16:36:41.342Z,26.50
2022-08-26T16:39:10.698Z,26.20
2022-08-26T16:41:39.121Z,26.50
2022-08-26T16:44:08.679Z,26.70
2022-08-26T16:46:39.664Z,26.70
2022-08-26T16:49:08.076Z,26.90
2022-08-26T16:51:38.046Z,26.10
2022-08-26T16:54:07.530Z,26.20
2022-08-26T16:56:36.189Z,26.50
2022-08-26T16:59:05.807Z,26.70
2022-08-26T17:01:34.159Z,26.70
2022-08-26T17:04:04.187Z,26.80
2022-08-26T17:06:33.099Z,26.90
2022-08-26T17:09:01.480Z,26.90
2022-08-26T17:11:30.004Z,27.00
2022-08-26T17:13:58.138Z,27.00
2022-08-26T17:16:27.128Z,26.90
2022-08-26T17:18:56.927Z,26.20
2022-08-26T17:21:27.983Z,26.10
2022-08-26T17:23:57.332Z,25.60
2022-08-26T17:26:25.690Z,25.10
2022-08-26T17:28:54.268Z,24.60
2022-08-26T17:31:23.757Z,23.90
2022-08-26T17:33:53.537Z,22.40
2022-08-26T17:36:28.056Z,22.50
2022-08-26T17:38:59.064Z,22.70
2022-08-26T17:41:28.335Z,23.10
2022-08-26T17:43:57.092Z,23.60
2022-08-26T17:46:25.780Z,23.90
2022-08-26T17:48:54.297Z,24.10
2022-08-26T17:51:23.625Z,24.10
2022-08-26T17:53:52.739Z,24.30
2022-08-26T17:56:30.103Z,24.30
2022-08-26T17:59:02.330Z,24.30
2022-08-26T18:01:32.783Z,24.20
2022-08-26T18:04:01.556Z,24.10
2022-08-26T18:06:30.580Z,24.20
2022-08-26T18:08:59.605Z,24.20
2022-08-26T18:11:30.229Z,24.30
2022-08-26T18:13:58.584Z,24.30
2022-08-26T18:16:27.223Z,24.20
2022-08-26T18:18:55.731Z,24.10
2022-08-26T18:21:27.324Z,24.10
2022-08-26T18:23:55.857Z,23.90
2022-08-26T18:26:26.404Z,23.70
2022-08-26T18:28:56.448Z,23.60
2022-08-26T18:31:25.007Z,23.40
2022-08-26T18:33:53.787Z,23.40
2022-08-26T18:36:25.125Z,23.40
2022-08-26T18:38:54.101Z,23.50
2022-08-26T18:41:25.098Z,23.50
2022-08-26T18:43:55.987Z,23.50
2022-08-26T18:46:26.391Z,23.50
2022-08-26T18:48:56.318Z,23.50
2022-08-26T18:51:30.317Z,23.40
2022-08-26T18:53:59.528Z,23.40
2022-08-26T18:56:28.782Z,23.40
2022-08-26T18:58:59.887Z,23.50
2022-08-26T19:01:29.363Z,23.50
2022-08-26T19:03:58.611Z,23.60
2022-08-26T19:06:28.277Z,23.60
2022-08-26T19:08:57.959Z,23.40
2022-08-26T19:11:32.163Z,23.60
2022-08-26T19:14:03.017Z,23.10
2022-08-26T19:16:31.780Z,22.60
2022-08-26T19:19:01.370Z,22.90
2022-08-26T19:21:30.709Z,23.10
2022-08-26T19:23:59.729Z,23.20
2022-08-26T19:26:29.741Z,23.20
2022-08-26T19:28:57.992Z,22.90
2022-08-26T19:31:28.204Z,23.20
2022-08-26T19:33:58.010Z,23.30
2022-08-26T19:36:27.907Z,23.40
2022-08-26T19:38:57.318Z,22.90
2022-08-26T19:41:37.224Z,23.10
2022-08-26T19:44:08.139Z,23.30
2022-08-26T19:49:06.792Z,23.40
2022-08-26T19:51:36.521Z,23.40
2022-08-26T19:54:05.523Z,23.50
2022-08-26T19:56:35.116Z,23.60
2022-08-26T19:59:03.391Z,23.50
2022-08-26T20:01:31.883Z,23.40
2022-08-26T20:04:01.589Z,23.40
2022-08-26T20:06:29.983Z,23.20
2022-08-26T20:08:58.682Z,23.20
2022-08-26T20:11:27.036Z,23.30
2022-08-26T20:13:55.297Z,23.20
2022-08-26T20:16:23.809Z,23.20
2022-08-26T20:19:09.206Z,23.20
2022-08-26T20:21:41.386Z,23.30
2022-08-26T20:24:12.510Z,23.30
2022-08-26T20:26:42.464Z,23.30
2022-08-26T20:29:12.070Z,23.40
2022-08-26T20:31:41.044Z,23.40
2022-08-26T20:34:09.373Z,23.40
2022-08-26T20:36:41.324Z,23.40
2022-08-26T20:39:10.778Z,23.30
2022-08-26T20:41:40.063Z,23.20
2022-08-26T20:44:09.494Z,23.10
2022-08-26T20:46:38.707Z,23.10
2022-08-26T20:49:07.751Z,23.10
2022-08-26T20:51:37.624Z,23.10
2022-08-26T20:54:08.812Z,23.10
2022-08-26T20:56:37.512Z,23.00
2022-08-26T20:59:08.249Z,22.90
2022-08-26T21:01:42.147Z,22.80
2022-08-26T21:04:13.065Z,22.60
2022-08-26T21:06:42.235Z,22.70
2022-08-26T21:09:17.682Z,22.80
2022-08-26T21:11:46.928Z,22.80
2022-08-26T21:14:16.971Z,22.80
2022-08-26T21:16:47.555Z,22.80
2022-08-26T21:19:19.895Z,22.80
2022-08-26T21:21:49.458Z,22.80
2022-08-26T21:24:19.027Z,22.80
2022-08-26T21:26:48.216Z,22.80
2022-08-26T21:29:16.535Z,22.80
2022-08-26T21:31:46.955Z,22.80
2022-08-26T21:34:16.094Z,22.90
2022-08-26T21:36:44.532Z,22.90
2022-08-26T21:39:13.189Z,22.90
2022-08-26T21:41:43.831Z,22.90
2022-08-26T21:44:13.719Z,22.90
2022-08-26T21:46:42.867Z,22.80
2022-08-26T21:49:13.369Z,22.80
2022-08-26T21:51:44.292Z,22.80
2022-08-26T21:54:13.438Z,22.80
2022-08-26T21:56:47.016Z,22.80
2022-08-26T21:59:16.380Z,22.90
2022-08-26T22:01:44.758Z,22.90
2022-08-26T22:04:13.078Z,22.90
2022-08-26T22:06:44.265Z,22.90
2022-08-26T22:09:13.916Z,22.90
2022-08-26T22:11:43.868Z,22.90
2022-08-26T22:14:12.450Z,23.00
2022-08-26T22:16:40.922Z,22.90
2022-08-26T22:19:17.234Z,23.00
2022-08-26T22:21:45.738Z,22.90
2022-08-26T22:24:14.062Z,22.90
2022-08-26T22:26:43.665Z,22.90
2022-08-26T22:29:12.052Z,22.80
2022-08-26T22:31:40.466Z,22.80
2022-08-26T22:34:10.938Z,22.80
2022-08-26T22:36:44.160Z,22.80
2022-08-26T22:39:13.883Z,22.80
2022-08-26T22:41:44.456Z,22.20
2022-08-26T22:44:13.503Z,22.40
2022-08-26T22:46:43.896Z,22.60
2022-08-26T22:49:15.839Z,22.70
2022-08-26T22:51:44.992Z,22.70
2022-08-26T22:54:14.166Z,22.80
2022-08-26T22:56:44.991Z,22.80
2022-08-26T22:59:16.223Z,22.80
2022-08-26T23:01:46.816Z,22.80
2022-08-26T23:04:15.381Z,22.80
2022-08-26T23:06:47.271Z,22.80
2022-08-26T23:09:18.588Z,22.80
2022-08-26T23:11:49.869Z,22.90
2022-08-26T23:14:19.476Z,22.90
2022-08-26T23:16:47.841Z,22.90
2022-08-26T23:19:17.811Z,22.90
2022-08-26T23:21:46.552Z,22.80
2022-08-26T23:24:15.985Z,22.80
2022-08-26T23:26:45.179Z,22.80
2022-08-26T23:29:16.544Z,22.70
2022-08-26T23:31:45.594Z,22.60
2022-08-26T23:34:31.666Z,22.50
2022-08-26T23:37:00.999Z,22.50
2022-08-26T23:39:29.527Z,22.50
2022-08-26T23:41:58.090Z,22.50
2022-08-26T23:44:28.270Z,22.40
2022-08-26T23:46:56.994Z,22.40
2022-08-26T23:49:26.259Z,22.40
2022-08-26T23:52:12.460Z,22.40
2022-08-26T23:54:41.507Z,22.40
2022-08-26T23:57:09.963Z,22.40
2022-08-26T23:59:40.482Z,22.40
